createdAt,value
2022-08-05T00:00:00.624Z,0.045
2022-08-05T00:01:20.213Z,0.045
2022-08-05T00:02:07.945Z,0.045
2022-08-05T00:03:00.309Z,0.045
2022-08-05T00:04:00.433Z,0.045
2022-08-05T00:05:00.300Z,0.045
2022-08-05T00:06:05.692Z,0.045
2022-08-05T00:07:00.367Z,0.045
2022-08-05T00:08:01.579Z,0.045
2022-08-05T00:09:00.585Z,0.045
2022-08-05T00:10:00.375Z,0.045
2022-08-05T00:11:01.296Z,0.045
2022-08-05T00:12:00.396Z,0.045
2022-08-05T00:13:00.422Z,0.045
2022-08-05T00:14:00.308Z,0.045
2022-08-05T00:15:40.751Z,0.090
2022-08-05T00:16:00.610Z,0.045
2022-08-05T00:17:01.812Z,0.045
2022-08-05T00:18:02.571Z,0.045
2022-08-05T00:19:00.290Z,0.045
2022-08-05T00:20:02.752Z,0.045
2022-08-05T00:21:00.351Z,0.045
2022-08-05T00:22:00.345Z,0.045
2022-08-05T00:23:02.718Z,0.045
2022-08-05T00:24:10.146Z,0.090
2022-08-05T00:25:00.344Z,0.045
2022-08-05T00:26:00.389Z,0.045
2022-08-05T00:27:00.347Z,0.045
2022-08-05T00:28:00.325Z,0.045
2022-08-05T00:29:00.307Z,0.045
2022-08-05T00:30:03.092Z,0.045
2022-08-05T00:31:02.732Z,0.045
2022-08-05T00:32:12.597Z,0.045
2022-08-05T00:33:00.317Z,0.045
2022-08-05T00:34:53.546Z,0.045
2022-08-05T00:35:06.247Z,0.045
2022-08-05T00:36:16.550Z,0.045
2022-08-05T00:37:11.568Z,0.045
2022-08-05T00:38:00.388Z,0.045
2022-08-05T00:39:00.431Z,0.045
2022-08-05T00:40:00.400Z,0.045
2022-08-05T00:41:00.306Z,0.045
2022-08-05T00:42:00.291Z,0.045
2022-08-05T00:43:00.313Z,0.045
2022-08-05T00:44:00.296Z,0.045
2022-08-05T00:45:00.611Z,0.045
2022-08-05T00:46:00.396Z,0.045
2022-08-05T00:47:02.028Z,0.045
2022-08-05T00:48:04.985Z,0.045
2022-08-05T00:49:00.450Z,0.045
2022-08-05T00:50:00.286Z,0.045
2022-08-05T00:51:00.383Z,0.045
2022-08-05T00:52:00.310Z,0.045
2022-08-05T00:53:00.309Z,0.045
2022-08-05T00:54:02.962Z,0.045
2022-08-05T00:55:00.473Z,0.045
2022-08-05T00:56:00.399Z,0.045
2022-08-05T00:57:00.364Z,0.045
2022-08-05T00:58:00.302Z,0.045
2022-08-05T00:59:00.456Z,0.045
2022-08-05T01:00:00.397Z,0.045
2022-08-05T01:01:00.426Z,0.045
2022-08-05T01:02:00.327Z,0.045
2022-08-05T01:03:00.298Z,0.045
2022-08-05T01:04:00.338Z,0.045
2022-08-05T01:05:00.400Z,0.045
2022-08-05T01:06:00.306Z,0.045
2022-08-05T01:07:00.306Z,0.045
2022-08-05T01:08:39.950Z,0.045
2022-08-05T01:09:00.304Z,0.045
2022-08-05T01:10:00.419Z,0.045
2022-08-05T01:11:00.291Z,0.045
2022-08-05T01:12:09.315Z,0.045
2022-08-05T01:13:05.350Z,0.045
2022-08-05T01:14:00.356Z,0.045
2022-08-05T01:15:00.307Z,0.045
2022-08-05T01:16:00.416Z,0.045
2022-08-05T01:17:00.310Z,0.045
2022-08-05T01:18:00.386Z,0.090
2022-08-05T01:19:00.754Z,0.090
2022-08-05T01:20:02.806Z,0.090
2022-08-05T01:21:00.397Z,0.090
2022-08-05T01:22:00.304Z,0.090
2022-08-05T01:23:00.318Z,0.135
2022-08-05T01:24:00.297Z,0.135
2022-08-05T01:25:00.381Z,0.135
2022-08-05T01:26:00.317Z,0.180
2022-08-05T01:27:00.299Z,0.180
2022-08-05T01:28:00.509Z,0.180
2022-08-05T01:29:00.619Z,0.180
2022-08-05T01:30:00.361Z,0.225
2022-08-05T01:31:00.437Z,0.270
2022-08-05T01:32:00.329Z,0.315
2022-08-05T01:33:00.314Z,0.405
2022-08-05T01:34:00.396Z,0.450
2022-08-05T01:35:00.368Z,0.540
2022-08-05T01:36:00.477Z,0.675
2022-08-05T01:37:00.663Z,0.855
2022-08-05T01:38:00.324Z,1.035
2022-08-05T01:39:01.352Z,1.260
2022-08-05T01:40:00.420Z,1.485
2022-08-05T01:41:01.383Z,1.845
2022-08-05T01:42:00.439Z,2.250
2022-08-05T01:43:00.384Z,2.745
2022-08-05T01:44:00.296Z,3.330
2022-08-05T01:45:02.399Z,3.960
2022-08-05T01:46:07.150Z,4.860
2022-08-05T01:47:00.323Z,5.895
2022-08-05T01:48:00.515Z,7.110
2022-08-05T01:49:00.320Z,8.415
2022-08-05T01:50:02.848Z,10.035
2022-08-05T01:51:00.287Z,11.880
2022-08-05T01:52:00.289Z,13.950
2022-08-05T01:53:00.318Z,16.290
2022-08-05T01:54:00.387Z,18.810
2022-08-05T01:55:00.508Z,21.600
2022-08-05T01:56:00.298Z,24.660
2022-08-05T01:58:09.706Z,31.680
2022-08-05T01:58:10.722Z,28.080
2022-08-05T01:59:00.305Z,35.460
2022-08-05T02:00:00.416Z,39.960
2022-08-05T02:01:00.381Z,44.280
2022-08-05T02:02:00.435Z,48.960
2022-08-05T02:03:00.294Z,54.000
2022-08-05T02:04:00.307Z,59.400
2022-08-05T02:05:00.303Z,64.800
2022-08-05T02:06:03.329Z,70.920
2022-08-05T02:07:00.323Z,77.040
2022-08-05T02:08:01.225Z,84.240
2022-08-05T02:09:00.304Z,91.440
2022-08-05T02:10:00.555Z,99.360
2022-08-05T02:11:00.305Z,107.280
2022-08-05T02:12:00.381Z,115.920
2022-08-05T02:13:00.500Z,126.000
2022-08-05T02:14:00.358Z,135.360
2022-08-05T02:15:00.323Z,145.440
2022-08-05T02:16:00.392Z,156.960
2022-08-05T02:17:00.377Z,168.480
2022-08-05T02:18:30.614Z,180.720
2022-08-05T02:19:00.296Z,192.960
2022-08-05T02:20:00.316Z,205.920
2022-08-05T02:21:00.310Z,220.320
2022-08-05T02:22:00.298Z,234.720
2022-08-05T02:23:00.289Z,252.000
2022-08-05T02:24:00.407Z,267.840
2022-08-05T02:25:00.416Z,283.680
2022-08-05T02:26:00.396Z,302.400
2022-08-05T02:27:00.301Z,318.240
2022-08-05T02:28:00.571Z,336.960
2022-08-05T02:29:00.314Z,355.680
2022-08-05T02:30:00.931Z,374.400
2022-08-05T02:31:00.299Z,391.680
2022-08-05T02:32:00.396Z,411.840
2022-08-05T02:33:00.388Z,429.120
2022-08-05T02:34:00.402Z,452.160
2022-08-05T02:35:00.553Z,469.440
2022-08-05T02:36:01.320Z,489.600
2022-08-05T02:37:00.309Z,506.880
2022-08-05T02:38:00.418Z,527.040
2022-08-05T02:39:00.508Z,547.200
2022-08-05T02:40:00.407Z,567.360
2022-08-05T02:41:00.293Z,590.400
2022-08-05T02:42:01.456Z,610.560
2022-08-05T02:43:00.433Z,630.720
2022-08-05T02:44:02.901Z,653.760
2022-08-05T02:45:00.333Z,673.920
2022-08-05T02:46:00.998Z,696.960
2022-08-05T02:47:01.181Z,717.120
2022-08-05T02:48:11.937Z,737.280
2022-08-05T02:49:00.393Z,760.320
2022-08-05T02:50:00.389Z,777.600
2022-08-05T02:51:00.361Z,800.640
2022-08-05T02:52:02.854Z,823.680
2022-08-05T02:53:00.313Z,840.960
2022-08-05T02:54:04.176Z,864.000
2022-08-05T02:55:02.053Z,887.040
2022-08-05T02:56:02.060Z,898.560
2022-08-05T02:57:00.393Z,921.600
2022-08-05T02:58:19.878Z,944.640
2022-08-05T02:59:00.292Z,961.920
2022-08-05T03:00:00.299Z,984.960
2022-08-05T03:01:00.498Z,1008.000
2022-08-05T03:02:00.545Z,1077.120
2022-08-05T03:03:00.314Z,1100.160
2022-08-05T03:04:03.251Z,1123.200
2022-08-05T03:05:00.324Z,1146.240
2022-08-05T03:06:54.922Z,1163.520
2022-08-05T03:07:00.388Z,1180.800
2022-08-05T03:08:08.796Z,1209.600
2022-08-05T03:09:00.317Z,1232.640
2022-08-05T03:10:00.288Z,1249.920
2022-08-05T03:11:50.051Z,1272.960
2022-08-05T03:12:00.322Z,1296.000
2022-08-05T03:14:03.023Z,1342.080
2022-08-05T03:15:00.337Z,1359.360
2022-08-05T03:16:00.321Z,1382.400
2022-08-05T03:17:00.403Z,1399.680
2022-08-05T03:18:00.357Z,1422.720
2022-08-05T03:19:00.381Z,1445.760
2022-08-05T03:20:00.351Z,1468.800
2022-08-05T03:21:00.406Z,1486.080
2022-08-05T03:22:00.399Z,1509.120
2022-08-05T03:23:00.405Z,1532.160
2022-08-05T03:24:00.472Z,1543.680
2022-08-05T03:25:31.459Z,1566.720
2022-08-05T03:26:04.859Z,1589.760
2022-08-05T03:27:00.515Z,1612.800
2022-08-05T03:28:00.755Z,1635.840
2022-08-05T03:29:00.558Z,1658.880
2022-08-05T03:30:07.530Z,1681.920
2022-08-05T03:31:00.794Z,1704.960
2022-08-05T03:32:00.788Z,1716.480
2022-08-05T03:33:00.573Z,1739.520
2022-08-05T03:34:00.685Z,1762.560
2022-08-05T03:35:00.773Z,1785.600
2022-08-05T03:36:00.511Z,1808.640
2022-08-05T03:37:00.785Z,1820.160
2022-08-05T03:38:00.560Z,1843.200
2022-08-05T03:39:00.569Z,1866.240
2022-08-05T03:40:01.669Z,1877.760
2022-08-05T03:41:00.509Z,1900.800
2022-08-05T03:42:00.615Z,1923.840
2022-08-05T03:43:15.678Z,1935.360
2022-08-05T03:44:11.825Z,1958.400
2022-08-05T03:45:01.584Z,1981.440
2022-08-05T03:46:00.673Z,1992.960
2022-08-05T03:47:00.601Z,2016.000
2022-08-05T03:48:00.561Z,2039.040
2022-08-05T03:49:01.885Z,2050.560
2022-08-05T03:50:00.722Z,2073.600
2022-08-05T03:52:36.872Z,2096.640
2022-08-05T03:52:48.707Z,2108.160
2022-08-05T03:55:50.441Z,2119.680
2022-08-05T03:55:50.587Z,2142.720
2022-08-05T03:56:05.120Z,2154.240
2022-08-05T03:56:10.005Z,2177.280
2022-08-05T03:57:00.547Z,2200.320
2022-08-05T03:58:00.496Z,2211.840
2022-08-05T03:59:00.306Z,2234.880
2022-08-05T04:00:01.464Z,2246.400
2022-08-05T04:01:00.414Z,2269.440
2022-08-05T04:02:00.574Z,2292.480
2022-08-05T04:03:00.315Z,2304.000
2022-08-05T04:04:10.092Z,2327.040
2022-08-05T04:05:00.338Z,2338.560
2022-08-05T04:06:00.292Z,2361.600
2022-08-05T04:07:00.417Z,2384.640
2022-08-05T04:08:00.334Z,2396.160
2022-08-05T04:09:00.306Z,2419.200
2022-08-05T04:10:02.920Z,2442.240
2022-08-05T04:11:00.303Z,2453.760
2022-08-05T04:12:00.308Z,2476.800
2022-08-05T04:13:00.411Z,2499.840
2022-08-05T04:14:00.280Z,2522.880
2022-08-05T04:15:00.302Z,2534.400
2022-08-05T04:16:04.737Z,2557.440
2022-08-05T04:17:00.449Z,2580.480
2022-08-05T04:18:00.385Z,2592.000
2022-08-05T04:19:00.402Z,2615.040
2022-08-05T04:20:00.307Z,2638.080
2022-08-05T04:21:00.289Z,2649.600
2022-08-05T04:22:09.352Z,2661.120
2022-08-05T04:23:00.318Z,2684.160
2022-08-05T04:24:05.433Z,2695.680
2022-08-05T04:25:00.305Z,2718.720
2022-08-05T04:26:01.058Z,2730.240
2022-08-05T04:27:00.314Z,2753.280
2022-08-05T04:28:03.970Z,2764.800
2022-08-05T04:29:00.838Z,2787.840
2022-08-05T04:30:03.769Z,2799.360
2022-08-05T04:31:01.135Z,2822.400
2022-08-05T04:32:00.502Z,2845.440
2022-08-05T04:33:00.393Z,2856.960
2022-08-05T04:34:31.175Z,2880.000
2022-08-05T04:35:00.456Z,2914.560
2022-08-05T04:36:16.375Z,2937.600
2022-08-05T04:37:00.762Z,2949.120
2022-08-05T04:38:01.983Z,2972.160
2022-08-05T04:39:00.423Z,2995.200
2022-08-05T04:40:00.297Z,3041.280
2022-08-05T04:41:00.431Z,3064.320
2022-08-05T04:42:00.305Z,3087.360
2022-08-05T04:43:00.283Z,3133.440
2022-08-05T04:44:00.315Z,3156.480
2022-08-05T04:45:01.054Z,3202.560
2022-08-05T04:46:00.317Z,3248.640
2022-08-05T04:47:09.483Z,3317.760
2022-08-05T04:48:00.282Z,5068.800
2022-08-05T04:49:00.299Z,11980.800
2022-08-05T04:50:03.081Z,16128.000
2022-08-05T04:51:02.537Z,16404.480
2022-08-05T04:52:00.733Z,16404.480
2022-08-05T04:53:00.378Z,16588.801
2022-08-05T04:54:01.331Z,16588.801
2022-08-05T04:55:00.348Z,16588.801
2022-08-05T04:56:33.150Z,16773.119
2022-08-05T04:57:00.312Z,16773.119
2022-08-05T04:58:00.281Z,16773.119
2022-08-05T04:59:00.377Z,16773.119
2022-08-05T05:00:00.417Z,16865.279
2022-08-05T05:01:00.306Z,16957.439
2022-08-05T05:02:35.401Z,16957.439
2022-08-05T05:03:03.736Z,17049.600
2022-08-05T05:04:00.324Z,17049.600
2022-08-05T05:05:02.798Z,17049.600
2022-08-05T05:06:39.670Z,17141.760
2022-08-05T05:07:00.301Z,17141.760
2022-08-05T05:08:01.082Z,17233.920
2022-08-05T05:09:00.587Z,17233.920
2022-08-05T05:10:01.966Z,17326.080
2022-08-05T05:11:00.329Z,17326.080
2022-08-05T05:12:02.902Z,17326.080
2022-08-05T05:13:00.289Z,17326.080
2022-08-05T05:14:00.315Z,17326.080
2022-08-05T05:15:03.698Z,17326.080
2022-08-05T05:16:02.129Z,17418.240
2022-08-05T05:17:00.324Z,17510.400
2022-08-05T05:18:00.911Z,17602.561
2022-08-05T05:19:18.528Z,17602.561
2022-08-05T05:20:00.359Z,17602.561
2022-08-05T05:21:00.394Z,17602.561
2022-08-05T05:22:03.588Z,17602.561
2022-08-05T05:23:04.172Z,17602.561
2022-08-05T05:24:04.314Z,17602.561
2022-08-05T05:25:01.276Z,17694.721
2022-08-05T05:26:00.400Z,17694.721
2022-08-05T05:27:00.412Z,17694.721
2022-08-05T05:28:00.320Z,17694.721
2022-08-05T05:29:00.381Z,17786.881
2022-08-05T05:30:05.024Z,17694.721
2022-08-05T05:31:00.368Z,17694.721
2022-08-05T05:32:00.352Z,17786.881
2022-08-05T05:33:03.474Z,17694.721
2022-08-05T05:34:02.020Z,17694.721
2022-08-05T05:35:00.343Z,17786.881
2022-08-05T05:36:00.559Z,17694.721
2022-08-05T05:37:00.334Z,17786.881
2022-08-05T05:38:02.211Z,17786.881
2022-08-05T05:39:00.574Z,17786.881
2022-08-05T05:40:00.347Z,17879.039
2022-08-05T05:41:00.349Z,17786.881
2022-08-05T05:42:00.469Z,17786.881
2022-08-05T05:43:00.515Z,17694.721
2022-08-05T05:44:00.820Z,17694.721
2022-08-05T05:45:00.388Z,17602.561
2022-08-05T05:46:00.362Z,17602.561
2022-08-05T05:47:04.166Z,17694.721
2022-08-05T05:48:05.395Z,17602.561
2022-08-05T05:49:00.516Z,17694.721
2022-08-05T05:50:01.478Z,17694.721
2022-08-05T05:51:00.316Z,17602.561
2022-08-05T05:52:00.303Z,17602.561
2022-08-05T05:53:00.437Z,17510.400
2022-08-05T05:54:00.550Z,17418.240
2022-08-05T05:55:00.285Z,17326.080
2022-08-05T05:56:03.168Z,17326.080
2022-08-05T05:57:00.351Z,17326.080
2022-08-05T05:58:02.006Z,17326.080
2022-08-05T05:59:03.484Z,17326.080
2022-08-05T06:00:00.485Z,17233.920
2022-08-05T06:01:12.189Z,17233.920
2022-08-05T06:02:00.292Z,17141.760
2022-08-05T06:03:00.336Z,17141.760
2022-08-05T06:04:03.540Z,17233.920
2022-08-05T06:05:00.410Z,17049.600
2022-08-05T06:06:00.334Z,16128.000
2022-08-05T06:07:01.397Z,16128.000
2022-08-05T06:08:01.842Z,17049.600
2022-08-05T06:09:00.329Z,16957.439
2022-08-05T06:10:04.682Z,16957.439
2022-08-05T06:11:00.314Z,16957.439
2022-08-05T06:12:01.648Z,16865.279
2022-08-05T06:13:00.398Z,16773.119
2022-08-05T06:14:00.684Z,16865.279
2022-08-05T06:15:00.485Z,16773.119
2022-08-05T06:16:29.066Z,16680.961
2022-08-05T06:17:01.912Z,16680.961
2022-08-05T06:18:00.325Z,16773.119
2022-08-05T06:19:01.992Z,16773.119
2022-08-05T06:20:00.332Z,16773.119
2022-08-05T06:21:00.315Z,16680.961
2022-08-05T06:22:00.287Z,16588.801
2022-08-05T06:23:00.388Z,16588.801
2022-08-05T06:24:00.303Z,16220.160
2022-08-05T06:25:00.313Z,16128.000
2022-08-05T06:26:20.829Z,15759.360
2022-08-05T06:27:00.390Z,16035.840
2022-08-05T06:28:10.865Z,16128.000
2022-08-05T06:29:03.263Z,16035.840
2022-08-05T06:30:04.375Z,15943.680
2022-08-05T06:31:00.454Z,15759.360
2022-08-05T06:32:00.408Z,16220.160
2022-08-05T06:33:00.320Z,16128.000
2022-08-05T06:34:07.454Z,16128.000
2022-08-05T06:35:05.785Z,16035.840
2022-08-05T06:36:07.389Z,16035.840
2022-08-05T06:37:00.365Z,15851.520
2022-08-05T06:38:04.295Z,15851.520
2022-08-05T06:39:00.368Z,15667.200
2022-08-05T06:40:00.366Z,15667.200
2022-08-05T06:41:00.382Z,15575.040
2022-08-05T06:42:00.295Z,15390.720
2022-08-05T06:43:00.302Z,15390.720
2022-08-05T06:44:00.725Z,15390.720
2022-08-05T06:45:00.304Z,15298.560
2022-08-05T06:46:03.906Z,15206.400
2022-08-05T06:47:02.175Z,15114.240
2022-08-05T06:48:36.409Z,14929.920
2022-08-05T06:49:01.102Z,14837.760
2022-08-05T06:50:05.008Z,14745.600
2022-08-05T06:51:00.459Z,14745.600
2022-08-05T06:52:00.632Z,14745.600
2022-08-05T06:53:11.174Z,14745.600
2022-08-05T06:54:00.293Z,14653.440
2022-08-05T06:55:00.285Z,14469.120
2022-08-05T06:56:00.576Z,14376.960
2022-08-05T06:57:14.069Z,14192.640
2022-08-05T06:58:20.316Z,13639.680
2022-08-05T06:59:00.529Z,13824.000
2022-08-05T07:00:00.326Z,13731.840
2022-08-05T07:01:00.584Z,13916.160
2022-08-05T07:02:00.287Z,13916.160
2022-08-05T07:03:00.303Z,13916.160
2022-08-05T07:04:00.420Z,13824.000
2022-08-05T07:05:00.386Z,13731.840
2022-08-05T07:06:00.390Z,13639.680
2022-08-05T07:07:00.341Z,13547.520
2022-08-05T07:08:00.320Z,13363.200
2022-08-05T07:09:00.382Z,13363.200
2022-08-05T07:10:03.533Z,13455.360
2022-08-05T07:11:00.485Z,13271.040
2022-08-05T07:12:00.802Z,13178.880
2022-08-05T07:13:00.376Z,13086.720
2022-08-05T07:14:00.327Z,13086.720
2022-08-05T07:15:00.308Z,12810.240
2022-08-05T07:16:04.625Z,12718.080
2022-08-05T07:18:02.349Z,12625.920
2022-08-05T07:18:08.977Z,12625.920
2022-08-05T07:19:00.292Z,12349.440
2022-08-05T07:20:33.273Z,12072.960
2022-08-05T07:21:04.789Z,12072.960
2022-08-05T07:22:01.451Z,11888.640
2022-08-05T07:23:00.330Z,11796.480
2022-08-05T07:24:01.305Z,11658.240
2022-08-05T07:25:23.655Z,11520.000
2022-08-05T07:26:00.381Z,11381.760
2022-08-05T07:27:00.376Z,11151.360
2022-08-05T07:28:05.756Z,11013.120
2022-08-05T07:29:00.302Z,10782.720
2022-08-05T07:30:30.103Z,10598.400
2022-08-05T07:31:00.281Z,10460.160
2022-08-05T07:32:00.290Z,10275.840
2022-08-05T07:33:00.303Z,10091.520
2022-08-05T07:34:00.466Z,9907.200
2022-08-05T07:35:00.317Z,9722.880
2022-08-05T07:36:19.498Z,9492.480
2022-08-05T07:37:00.314Z,9262.080
2022-08-05T07:38:00.391Z,9031.680
2022-08-05T07:39:00.491Z,8847.360
2022-08-05T07:40:26.088Z,8663.040
2022-08-05T07:41:16.596Z,8478.720
2022-08-05T07:42:13.396Z,8248.320
2022-08-05T07:43:04.735Z,8064.000
2022-08-05T07:44:00.381Z,7833.600
2022-08-05T07:45:00.511Z,7649.280
2022-08-05T07:46:00.292Z,7464.960
2022-08-05T07:47:00.308Z,7234.560
2022-08-05T07:48:00.457Z,7004.160
2022-08-05T07:49:02.099Z,6819.840
2022-08-05T07:50:00.299Z,6635.520
2022-08-05T07:51:00.315Z,6405.120
2022-08-05T07:52:00.286Z,6220.800
2022-08-05T07:53:00.311Z,6082.560
2022-08-05T07:54:01.959Z,5944.320
2022-08-05T07:55:00.416Z,5829.120
2022-08-05T07:56:06.587Z,5575.680
2022-08-05T07:57:18.113Z,5391.360
2022-08-05T07:58:03.179Z,5253.120
2022-08-05T07:59:00.391Z,5114.880
2022-08-05T08:00:00.347Z,4999.680
2022-08-05T08:01:00.538Z,4884.480
2022-08-05T08:02:00.362Z,4815.360
2022-08-05T08:03:14.116Z,4723.200
2022-08-05T08:04:00.305Z,4700.160
2022-08-05T08:05:00.533Z,4677.120
2022-08-05T08:06:00.282Z,4677.120
2022-08-05T08:07:00.303Z,4677.120
2022-08-05T08:08:00.689Z,4608.000
2022-08-05T08:09:00.304Z,4631.040
2022-08-05T08:10:00.320Z,4446.720
2022-08-05T08:11:00.417Z,4538.880
2022-08-05T08:12:06.178Z,4538.880
2022-08-05T08:13:01.544Z,4515.840
2022-08-05T08:14:00.789Z,4515.840
2022-08-05T08:15:02.734Z,4538.880
2022-08-05T08:16:35.017Z,4446.720
2022-08-05T08:17:00.398Z,4561.920
2022-08-05T08:18:01.797Z,4584.960
2022-08-05T08:19:00.393Z,4608.000
2022-08-05T08:20:22.067Z,4631.040
2022-08-05T08:21:03.638Z,4631.040
2022-08-05T08:22:00.402Z,4561.920
2022-08-05T08:23:03.162Z,4654.080
2022-08-05T08:24:04.982Z,4700.160
2022-08-05T08:25:03.072Z,4723.200
2022-08-05T08:26:02.681Z,4746.240
2022-08-05T08:27:00.440Z,4746.240
2022-08-05T08:28:00.475Z,4700.160
2022-08-05T08:29:21.490Z,3133.440
2022-08-05T08:30:04.690Z,4631.040
2022-08-05T08:31:00.318Z,4677.120
2022-08-05T08:32:00.384Z,4700.160
2022-08-05T08:33:02.652Z,4654.080
2022-08-05T08:34:00.488Z,4631.040
2022-08-05T08:35:00.353Z,4631.040
2022-08-05T08:36:29.569Z,4631.040
2022-08-05T08:37:03.309Z,4677.120
2022-08-05T08:38:00.305Z,4608.000
2022-08-05T08:39:01.517Z,4584.960
2022-08-05T08:40:00.440Z,4700.160
2022-08-05T08:41:00.315Z,4561.920
2022-08-05T08:42:02.245Z,4538.880
2022-08-05T08:45:01.617Z,4515.840
2022-08-05T08:45:18.097Z,4492.800
2022-08-05T08:45:20.551Z,4515.840
2022-08-05T08:46:00.286Z,4308.480
2022-08-05T08:47:00.385Z,4239.360
2022-08-05T08:48:07.558Z,4561.920
2022-08-05T08:50:05.374Z,4538.880
2022-08-05T08:50:23.167Z,4561.920
2022-08-05T08:51:22.997Z,4584.960
2022-08-05T08:52:03.433Z,4538.880
2022-08-05T08:53:00.305Z,4193.280
2022-08-05T08:54:00.374Z,4101.120
2022-08-05T08:55:00.316Z,4561.920
2022-08-05T08:56:05.105Z,4561.920
2022-08-05T08:57:00.314Z,4515.840
2022-08-05T08:58:00.400Z,4492.800
2022-08-05T08:59:00.384Z,4492.800
2022-08-05T09:00:00.416Z,4538.880
2022-08-05T09:01:00.357Z,4469.760
2022-08-05T09:02:00.936Z,4170.240
2022-08-05T09:03:00.393Z,4377.600
2022-08-05T09:04:00.332Z,4515.840
2022-08-05T09:05:16.619Z,4538.880
2022-08-05T09:06:08.487Z,4492.800
2022-08-05T09:07:00.353Z,4492.800
2022-08-05T09:08:00.430Z,4492.800
2022-08-05T09:09:00.379Z,4492.800
2022-08-05T09:10:00.310Z,4515.840
2022-08-05T09:11:00.304Z,4584.960
2022-08-05T09:12:04.796Z,4515.840
2022-08-05T09:13:05.213Z,4515.840
2022-08-05T09:14:09.194Z,4515.840
2022-08-05T09:15:06.173Z,4515.840
2022-08-05T09:16:00.378Z,4515.840
2022-08-05T09:17:00.302Z,4515.840
2022-08-05T09:18:00.315Z,4492.800
2022-08-05T09:19:00.309Z,4492.800
2022-08-05T09:20:02.540Z,4469.760
2022-08-05T09:21:00.307Z,4492.800
2022-08-05T09:22:22.941Z,4515.840
2022-08-05T09:23:04.958Z,4515.840
2022-08-05T09:24:02.429Z,4515.840
2022-08-05T09:25:00.301Z,4538.880
2022-08-05T09:26:05.814Z,4561.920
2022-08-05T09:27:00.307Z,4538.880
2022-08-05T09:28:04.212Z,4492.800
2022-08-05T09:29:00.326Z,4492.800
2022-08-05T09:30:04.642Z,4492.800
2022-08-05T09:31:00.483Z,4492.800
2022-08-05T09:32:42.804Z,4492.800
2022-08-05T09:33:00.302Z,4446.720
2022-08-05T09:34:00.526Z,4423.680
2022-08-05T09:35:00.374Z,4515.840
2022-08-05T09:36:03.640Z,4515.840
2022-08-05T09:37:00.339Z,4538.880
2022-08-05T09:38:17.915Z,4492.800
2022-08-05T09:39:00.564Z,4492.800
2022-08-05T09:40:00.526Z,4492.800
2022-08-05T09:41:00.389Z,4469.760
2022-08-05T09:42:00.350Z,4446.720
2022-08-05T09:43:00.398Z,4446.720
2022-08-05T09:44:00.445Z,4400.640
2022-08-05T09:45:17.194Z,4423.680
2022-08-05T09:46:07.605Z,4423.680
2022-08-05T09:47:00.611Z,4400.640
2022-08-05T09:48:01.558Z,4354.560
2022-08-05T09:49:08.272Z,4354.560
2022-08-05T09:50:02.649Z,4377.600
2022-08-05T09:51:00.541Z,4377.600
2022-08-05T09:52:00.703Z,4492.800
2022-08-05T09:53:00.497Z,4377.600
2022-08-05T09:54:00.748Z,4354.560
2022-08-05T09:58:00.419Z,4354.560
2022-08-05T09:59:00.318Z,4377.600
2022-08-05T10:00:03.650Z,4354.560
2022-08-05T10:01:00.329Z,4354.560
2022-08-05T10:02:00.323Z,4354.560
2022-08-05T10:03:00.398Z,4308.480
2022-08-05T10:04:00.670Z,4308.480
2022-08-05T10:05:00.426Z,4285.440
2022-08-05T10:06:02.710Z,4262.400
2022-08-05T10:07:01.665Z,4193.280
2022-08-05T10:08:34.771Z,4147.200
2022-08-05T10:09:00.402Z,4078.080
2022-08-05T10:10:15.323Z,4262.400
2022-08-05T10:11:00.317Z,4262.400
2022-08-05T10:12:02.844Z,4193.280
2022-08-05T10:13:00.308Z,4262.400
2022-08-05T10:14:00.303Z,4262.400
2022-08-05T10:15:00.310Z,4331.520
2022-08-05T10:16:00.463Z,4285.440
2022-08-05T10:17:00.411Z,4285.440
2022-08-05T10:18:00.399Z,4239.360
2022-08-05T10:19:00.397Z,4193.280
2022-08-05T10:20:04.290Z,4170.240
2022-08-05T10:21:00.337Z,4193.280
2022-08-05T10:22:00.348Z,4193.280
2022-08-05T10:23:00.318Z,4147.200
2022-08-05T10:24:01.345Z,4216.320
2022-08-05T10:25:00.317Z,4170.240
2022-08-05T10:26:00.302Z,4101.120
2022-08-05T10:27:01.230Z,4078.080
2022-08-05T10:28:13.214Z,4101.120
2022-08-05T10:29:00.459Z,4124.160
2022-08-05T10:30:41.263Z,4101.120
2022-08-05T10:32:47.090Z,4078.080
2022-08-05T10:32:52.646Z,4055.040
2022-08-05T10:33:01.801Z,4032.000
2022-08-05T10:34:00.291Z,4055.040
2022-08-05T10:35:01.353Z,4055.040
2022-08-05T10:36:00.297Z,4078.080
2022-08-05T10:37:00.319Z,4055.040
2022-08-05T10:38:00.297Z,4078.080
2022-08-05T10:39:00.394Z,4032.000
2022-08-05T10:40:16.759Z,4032.000
2022-08-05T10:41:00.453Z,4008.960
2022-08-05T10:42:01.171Z,4262.400
2022-08-05T10:43:00.322Z,3985.920
2022-08-05T10:44:00.378Z,3985.920
2022-08-05T10:45:00.409Z,3962.880
2022-08-05T10:46:06.386Z,3962.880
2022-08-05T10:47:00.333Z,3939.840
2022-08-05T10:48:31.410Z,3939.840
2022-08-05T10:49:08.080Z,3916.800
2022-08-05T10:50:31.749Z,3916.800
2022-08-05T10:51:00.305Z,3916.800
2022-08-05T10:52:02.716Z,3916.800
2022-08-05T10:53:00.392Z,3893.760
2022-08-05T10:54:00.915Z,3916.800
2022-08-05T10:55:00.315Z,3893.760
2022-08-05T10:56:05.206Z,3870.720
2022-08-05T10:57:00.300Z,3847.680
2022-08-05T10:58:00.360Z,4078.080
2022-08-05T10:59:07.210Z,3847.680
2022-08-05T11:00:02.103Z,3847.680
2022-08-05T11:01:02.900Z,3824.640
2022-08-05T11:02:05.261Z,3824.640
2022-08-05T11:03:23.011Z,3847.680
2022-08-05T11:04:00.862Z,3824.640
2022-08-05T11:05:00.367Z,3801.600
2022-08-05T11:06:00.563Z,3801.600
2022-08-05T11:07:00.318Z,3778.560
2022-08-05T11:08:02.564Z,3778.560
2022-08-05T11:09:00.318Z,3755.520
2022-08-05T11:10:07.722Z,3847.680
2022-08-05T11:11:02.719Z,3778.560
2022-08-05T11:12:00.609Z,3801.600
2022-08-05T11:13:01.369Z,3778.560
2022-08-05T11:14:00.768Z,3801.600
2022-08-05T11:15:11.458Z,3778.560
2022-08-05T11:16:02.036Z,3778.560
2022-08-05T11:17:14.080Z,3778.560
2022-08-05T11:18:04.031Z,3755.520
2022-08-05T11:19:00.312Z,3732.480
2022-08-05T11:20:16.849Z,3755.520
2022-08-05T11:21:00.316Z,3732.480
2022-08-05T11:22:00.315Z,3847.680
2022-08-05T11:23:05.836Z,3709.440
2022-08-05T11:24:05.377Z,3709.440
2022-08-05T11:26:03.532Z,3732.480
2022-08-05T11:26:04.994Z,3709.440
2022-08-05T11:27:00.313Z,3686.400
2022-08-05T11:28:00.450Z,3686.400
2022-08-05T11:29:11.860Z,3663.360
2022-08-05T11:30:00.315Z,3663.360
2022-08-05T11:31:00.415Z,3617.280
2022-08-05T11:32:01.311Z,3640.320
2022-08-05T11:33:00.320Z,3640.320
2022-08-05T11:34:00.424Z,3663.360
2022-08-05T11:35:00.338Z,3640.320
2022-08-05T11:36:08.145Z,3686.400
2022-08-05T11:37:00.312Z,3663.360
2022-08-05T11:38:29.891Z,3663.360
2022-08-05T11:39:00.504Z,3663.360
2022-08-05T11:40:03.842Z,3663.360
2022-08-05T11:41:14.091Z,3663.360
2022-08-05T11:42:01.311Z,3663.360
2022-08-05T11:43:00.388Z,3663.360
2022-08-05T11:44:05.411Z,3663.360
2022-08-05T11:45:00.340Z,3663.360
2022-08-05T11:46:30.872Z,3686.400
2022-08-05T11:47:13.974Z,3640.320
2022-08-05T11:48:00.331Z,3663.360
2022-08-05T11:49:00.338Z,3663.360
2022-08-05T11:50:00.323Z,3663.360
2022-08-05T11:51:00.296Z,3663.360
2022-08-05T11:52:00.435Z,3686.400
2022-08-05T11:53:00.359Z,3663.360
2022-08-05T11:54:00.322Z,3686.400
2022-08-05T11:55:07.658Z,3686.400